»·PEaware :: SWA418 KLAS-KLAX

SWA418 :: KLAS-KLAX

FLIGHT INFORMATION

Flight Status: Arrived
Operator:
Southwest Airlines
More flights by this operator :: More flights under this callsign
Pilot: Ryan L. (9775)
Aircraft: BOEING 737-300
(B733)
More flights by this aircraft type
Origin: KLAS McCarran Intl
United States
Destination: KLAX Los Angeles Intl
United States
More flights between these airports :: More routes between these airports
Route: BOACH8 RIKII SHTNR BIGBR3
File this flight plan on PilotEdge
Remarks:
Altitude:
(Current/Filed)
26,000ft
Speed:
(Current/Filed)
400kts
Departed: 05-Dec-18 07:14 PM
Arrived: 05-Dec-18 08:11 PM
Distance/Time
Traveled:
205nm/0:57
Distance/Time
To Go:
Arrived

Flight Plot

Page will automatically refresh every two minutes.

Flight plan parsing failed; only flown route is shown


Map Options




Map Legend


Flown Route
Filed Route
Departure Airport
Arrival Airport
Navaid (VOR, NDB)
Fix

Horizontal Profiles

Position Reports

Time Latitude Longitude Heading Altitude Ground
Speed
05-Dec-18 18:41 36.084930 -115.154016 340 2188ft 0kts
05-Dec-18 18:42 36.084930 -115.154016 340 2188ft 0kts
05-Dec-18 18:43 36.084930 -115.154016 340 2188ft 0kts
05-Dec-18 18:44 36.084930 -115.154016 340 2188ft 0kts
05-Dec-18 18:45 36.084930 -115.154016 340 2188ft 0kts
05-Dec-18 18:46 36.084930 -115.154016 340 2188ft 0kts
05-Dec-18 18:47 36.084930 -115.154016 340 2188ft 0kts
05-Dec-18 18:48 36.084930 -115.154016 340 2188ft 0kts
05-Dec-18 18:49 36.084930 -115.154016 340 2188ft 0kts
05-Dec-18 18:50 36.084930 -115.154016 340 2188ft 0kts
05-Dec-18 18:51 36.084930 -115.154016 340 2188ft 0kts
05-Dec-18 18:52 36.084930 -115.154016 340 2188ft 0kts
05-Dec-18 18:53 36.084930 -115.154016 340 2188ft 0kts
05-Dec-18 18:54 36.084930 -115.154016 340 2188ft 0kts
05-Dec-18 18:55 36.084930 -115.154016 340 2188ft 0kts
05-Dec-18 18:56 36.084930 -115.154016 340 2188ft 0kts
05-Dec-18 18:57 36.084930 -115.154016 340 2188ft 0kts
05-Dec-18 18:58 36.084930 -115.154016 340 2188ft 0kts
05-Dec-18 18:59 36.084800 -115.153957 339 2188ft 2kts
05-Dec-18 19:00 36.084286 -115.153724 326 2188ft 2kts
05-Dec-18 19:01 36.084210 -115.153234 244 2188ft 0kts
05-Dec-18 19:02 36.084209 -115.153234 244 2188ft 0kts
05-Dec-18 19:03 36.084209 -115.153234 244 2188ft 0kts
05-Dec-18 19:04 36.084209 -115.153234 244 2188ft 0kts
05-Dec-18 19:05 36.084209 -115.153234 244 2188ft 0kts
05-Dec-18 19:06 36.084112 -115.153487 244 2188ft 5kts
05-Dec-18 19:07 36.081287 -115.154792 155 2188ft 19kts
05-Dec-18 19:08 36.078663 -115.149482 95 2188ft 23kts
05-Dec-18 19:09 36.078268 -115.140928 89 2188ft 28kts
05-Dec-18 19:10 36.078274 -115.130736 90 2188ft 30kts
05-Dec-18 19:11 36.078138 -115.122532 121 2188ft 15kts
05-Dec-18 19:12 36.077450 -115.121542 138 2188ft 2kts
05-Dec-18 19:13 36.076423 -115.128562 268 2188ft 98kts
05-Dec-18 19:14 36.077204 -115.191232 270 3975ft 227kts
05-Dec-18 19:15 36.050347 -115.264378 203 6753ft 278kts
05-Dec-18 19:17 35.978277 -115.298326 200 7936ft 288kts
05-Dec-18 19:18 35.900664 -115.309975 186 11816ft 287kts
05-Dec-18 19:19 35.821313 -115.311028 177 15119ft 295kts
05-Dec-18 19:20 35.739982 -115.301620 178 18083ft 302kts
05-Dec-18 19:21 35.653790 -115.295297 185 19037ft 335kts
05-Dec-18 19:22 35.560119 -115.299243 185 19273ft 347kts
05-Dec-18 19:23 35.470448 -115.326545 212 21868ft 347kts
05-Dec-18 19:24 35.386873 -115.387961 212 24172ft 358kts
05-Dec-18 19:25 35.301399 -115.450069 212 25978ft 365kts
05-Dec-18 19:26 35.215378 -115.512367 212 26055ft 360kts
05-Dec-18 19:27 35.130078 -115.574097 214 26051ft 360kts
05-Dec-18 19:28 35.065079 -115.653896 225 26054ft 360kts
05-Dec-18 19:29 35.008948 -115.726029 226 26063ft 360kts
05-Dec-18 19:30 34.939972 -115.814011 226 26055ft 361kts
05-Dec-18 19:31 34.874564 -115.897050 227 26057ft 363kts
05-Dec-18 19:32 34.805819 -115.984114 227 26066ft 362kts
05-Dec-18 19:33 34.736912 -116.071500 228 26068ft 362kts
05-Dec-18 19:34 34.668190 -116.158981 228 26066ft 362kts
05-Dec-18 19:35 34.599621 -116.246108 227 26061ft 359kts
05-Dec-18 19:36 34.531271 -116.332745 227 26056ft 359kts
05-Dec-18 19:37 34.462746 -116.419381 227 26056ft 359kts
05-Dec-18 19:37 34.409082 -116.494571 242 26048ft 358kts
05-Dec-18 19:39 34.357994 -116.619926 242 26023ft 359kts
05-Dec-18 19:39 34.324316 -116.702423 242 26020ft 358kts
05-Dec-18 19:41 34.273674 -116.828435 242 26012ft 359kts
05-Dec-18 19:41 34.237978 -116.917018 242 25461ft 349kts
05-Dec-18 19:42 34.200162 -117.023934 249 23459ft 355kts
05-Dec-18 19:43 34.170414 -117.137269 248 21417ft 360kts
05-Dec-18 19:44 34.140567 -117.249886 248 19481ft 358kts
05-Dec-18 19:45 34.115596 -117.362689 252 17722ft 357kts
05-Dec-18 19:46 34.093151 -117.469914 252 16986ft 307kts
05-Dec-18 19:47 34.071835 -117.570894 253 14592ft 328kts
05-Dec-18 19:48 34.050493 -117.672430 253 14375ft 337kts
05-Dec-18 19:49 34.033970 -117.771652 261 12740ft 315kts
05-Dec-18 19:50 34.025562 -117.870158 261 11643ft 281kts
05-Dec-18 19:51 34.017723 -117.959892 261 10742ft 274kts
05-Dec-18 19:52 34.010113 -118.049469 262 9808ft 270kts
05-Dec-18 19:53 34.003456 -118.138084 262 8987ft 273kts
05-Dec-18 19:54 33.996968 -118.224607 263 9010ft 276kts
05-Dec-18 19:55 33.997984 -118.313505 274 8337ft 272kts
05-Dec-18 19:56 34.005773 -118.403134 275 6978ft 258kts
05-Dec-18 19:57 34.010779 -118.483973 269 7013ft 241kts
05-Dec-18 19:58 34.006394 -118.563756 262 6998ft 241kts
05-Dec-18 19:59 33.999668 -118.643994 263 6743ft 245kts
05-Dec-18 20:00 33.992759 -118.722369 262 5548ft 239kts
05-Dec-18 20:01 33.977048 -118.796752 217 4362ft 230kts
05-Dec-18 20:02 33.933338 -118.770259 101 3981ft 214kts
05-Dec-18 20:03 33.920021 -118.700717 101 4000ft 214kts
05-Dec-18 20:04 33.911389 -118.635296 60 4000ft 191kts
05-Dec-18 20:05 33.933036 -118.583126 83 3459ft 160kts
05-Dec-18 20:06 33.936326 -118.537925 81 2567ft 128kts
05-Dec-18 20:07 33.940498 -118.496965 80 1112ft 119kts
05-Dec-18 20:08 33.944672 -118.456144 81 527ft 124kts
05-Dec-18 20:09 33.948408 -118.419220 82 132ft 74kts
05-Dec-18 20:10 33.948364 -118.408852 111 132ft 5kts
05-Dec-18 20:11 33.947852 -118.405505 81 132ft 20kts
05-Dec-18 20:12 33.948319 -118.401023 145 132ft 1kts
05-Dec-18 20:13 33.947852 -118.401099 184 132ft 0kts

Navigation Log

Ident Type
Flight plan parsing failed, navigation log unavailable